sensor_id;sensor_type;location;lat;lon;timestamp;pressure;altitude;pressure_sealevel;temperature
23992;BMP280;12205;50.600;4.608;2022-08-21T00:01:21;100483.63;;;16.82
23992;BMP280;12205;50.600;4.608;2022-08-21T00:03:49;100480.91;;;16.82
23992;BMP280;12205;50.600;4.608;2022-08-21T00:06:16;100477.84;;;16.80
23992;BMP280;12205;50.600;4.608;2022-08-21T00:08:44;100472.06;;;16.78
23992;BMP280;12205;50.600;4.608;2022-08-21T00:11:13;100472.06;;;16.78
23992;BMP280;12205;50.600;4.608;2022-08-21T00:13:41;100469.00;;;16.76
23992;BMP280;12205;50.600;4.608;2022-08-21T00:16:08;100464.75;;;16.75
23992;BMP280;12205;50.600;4.608;2022-08-21T00:18:37;100464.00;;;16.71
23992;BMP280;12205;50.600;4.608;2022-08-21T00:21:04;100460.94;;;16.69
23992;BMP280;12205;50.600;4.608;2022-08-21T00:23:34;100456.72;;;16.68
23992;BMP280;12205;50.600;4.608;2022-08-21T00:26:02;100460.16;;;16.65
23992;BMP280;12205;50.600;4.608;2022-08-21T00:28:31;100455.94;;;16.64
23992;BMP280;12205;50.600;4.608;2022-08-21T00:30:59;100456.72;;;16.61
23992;BMP280;12205;50.600;4.608;2022-08-21T00:33:30;100450.94;;;16.59
23992;BMP280;12205;50.600;4.608;2022-08-21T00:35:57;100444.78;;;16.55
23992;BMP280;12205;50.600;4.608;2022-08-21T00:38:24;100447.13;;;16.52
23992;BMP280;12205;50.600;4.608;2022-08-21T00:40:57;100451.00;;;16.51
23992;BMP280;12205;50.600;4.608;2022-08-21T00:43:32;100444.06;;;16.50
23992;BMP280;12205;50.600;4.608;2022-08-21T00:46:01;100447.13;;;16.49
23992;BMP280;12205;50.600;4.608;2022-08-21T00:48:29;100438.66;;;16.50
23992;BMP280;12205;50.600;4.608;2022-08-21T00:51:04;100440.94;;;16.48
23992;BMP280;12205;50.600;4.608;2022-08-21T00:53:34;100430.22;;;16.41
23992;BMP280;12205;50.600;4.608;2022-08-21T00:56:04;100445.59;;;16.48
23992;BMP280;12205;50.600;4.608;2022-08-21T00:58:32;100440.22;;;16.44
23992;BMP280;12205;50.600;4.608;2022-08-21T01:01:05;100443.31;;;16.39
23992;BMP280;12205;50.600;4.608;2022-08-21T01:03:34;100444.88;;;16.37
23992;BMP280;12205;50.600;4.608;2022-08-21T01:06:02;100444.88;;;16.33
23992;BMP280;12205;50.600;4.608;2022-08-21T01:08:31;100445.66;;;16.30
23992;BMP280;12205;50.600;4.608;2022-08-21T01:10:59;100457.22;;;16.27
23992;BMP280;12205;50.600;4.608;2022-08-21T01:13:29;100451.09;;;16.23
23992;BMP280;12205;50.600;4.608;2022-08-21T01:16:02;100451.88;;;16.20
23992;BMP280;12205;50.600;4.608;2022-08-21T01:18:30;100450.34;;;16.19
23992;BMP280;12205;50.600;4.608;2022-08-21T01:21:09;100452.28;;;16.15
23992;BMP280;12205;50.600;4.608;2022-08-21T01:23:41;100444.16;;;16.11
23992;BMP280;12205;50.600;4.608;2022-08-21T01:26:10;100441.13;;;16.09
23992;BMP280;12205;50.600;4.608;2022-08-21T01:28:42;100451.13;;;16.08
23992;BMP280;12205;50.600;4.608;2022-08-21T01:31:15;100421.09;;;15.88
23992;BMP280;12205;50.600;4.608;2022-08-21T01:33:44;100446.88;;;16.00
23992;BMP280;12205;50.600;4.608;2022-08-21T01:36:12;100444.22;;;15.97
23992;BMP280;12205;50.600;4.608;2022-08-21T01:38:39;100450.00;;;15.95
23992;BMP280;12205;50.600;4.608;2022-08-21T01:41:07;100454.22;;;15.89
23992;BMP280;12205;50.600;4.608;2022-08-21T01:43:34;100454.22;;;15.89
23992;BMP280;12205;50.600;4.608;2022-08-21T01:46:03;100451.94;;;15.87
23992;BMP280;12205;50.600;4.608;2022-08-21T01:48:30;100445.00;;;15.83
23992;BMP280;12205;50.600;4.608;2022-08-21T01:50:58;100441.16;;;15.80
23992;BMP280;12205;50.600;4.608;2022-08-21T01:53:27;100452.69;;;15.73
23992;BMP280;12205;50.600;4.608;2022-08-21T01:55:54;100453.09;;;15.68
23992;BMP280;12205;50.600;4.608;2022-08-21T01:58:21;100453.47;;;15.67
23992;BMP280;12205;50.600;4.608;2022-08-21T02:00:48;100453.84;;;15.62
23992;BMP280;12205;50.600;4.608;2022-08-21T02:03:19;100458.13;;;15.59
23992;BMP280;12205;50.600;4.608;2022-08-21T02:05:46;100451.94;;;15.55
23992;BMP280;12205;50.600;4.608;2022-08-21T02:08:13;100457.31;;;15.55
23992;BMP280;12205;50.600;4.608;2022-08-21T02:10:42;100435.00;;;15.40
23992;BMP280;12205;50.600;4.608;2022-08-21T02:13:09;100444.22;;;15.46
23992;BMP280;12205;50.600;4.608;2022-08-21T02:15:36;100452.31;;;15.50
23992;BMP280;12205;50.600;4.608;2022-08-21T02:18:05;100451.16;;;15.47
23992;BMP280;12205;50.600;4.608;2022-08-21T02:20:38;100451.16;;;15.37
23992;BMP280;12205;50.600;4.608;2022-08-21T02:23:08;100448.06;;;15.31
23992;BMP280;12205;50.600;4.608;2022-08-21T02:25:37;100436.50;;;15.23
23992;BMP280;12205;50.600;4.608;2022-08-21T02:28:10;100441.13;;;15.26
23992;BMP280;12205;50.600;4.608;2022-08-21T02:30:44;100443.44;;;15.21
23992;BMP280;12205;50.600;4.608;2022-08-21T02:33:13;100432.66;;;15.17
23992;BMP280;12205;50.600;4.608;2022-08-21T02:35:43;100441.88;;;15.16
23992;BMP280;12205;50.600;4.608;2022-08-21T02:38:15;100428.03;;;15.14
23992;BMP280;12205;50.600;4.608;2022-08-21T02:40:45;100421.88;;;15.10
23992;BMP280;12205;50.600;4.608;2022-08-21T02:43:16;100424.56;;;15.10
23992;BMP280;12205;50.600;4.608;2022-08-21T02:45:46;100421.88;;;15.10
23992;BMP280;12205;50.600;4.608;2022-08-21T02:48:18;100422.25;;;15.05
23992;BMP280;12205;50.600;4.608;2022-08-21T02:50:48;100429.94;;;15.03
23992;BMP280;12205;50.600;4.608;2022-08-21T02:53:16;100429.56;;;15.01
23992;BMP280;12205;50.600;4.608;2022-08-21T02:55:45;100425.69;;;14.98
23992;BMP280;12205;50.600;4.608;2022-08-21T02:58:18;100427.22;;;14.95
23992;BMP280;12205;50.600;4.608;2022-08-21T03:00:45;100424.16;;;14.93
23992;BMP280;12205;50.600;4.608;2022-08-21T03:03:13;100427.59;;;14.90
23992;BMP280;12205;50.600;4.608;2022-08-21T03:05:40;100419.53;;;14.90
23992;BMP280;12205;50.600;4.608;2022-08-21T03:08:11;100428.75;;;14.89
23992;BMP280;12205;50.600;4.608;2022-08-21T03:10:42;100424.91;;;14.87
23992;BMP280;12205;50.600;4.608;2022-08-21T03:13:13;100419.91;;;14.85
23992;BMP280;12205;50.600;4.608;2022-08-21T03:15:41;100421.44;;;14.83
23992;BMP280;12205;50.600;4.608;2022-08-21T03:18:11;100423.38;;;14.82
23992;BMP280;12205;50.600;4.608;2022-08-21T03:20:41;100421.81;;;14.81
23992;BMP280;12205;50.600;4.608;2022-08-21T03:23:11;100422.19;;;14.80
23992;BMP280;12205;50.600;4.608;2022-08-21T03:25:40;100423.31;;;14.75
23992;BMP280;12205;50.600;4.608;2022-08-21T03:28:12;100417.94;;;14.75
23992;BMP280;12205;50.600;4.608;2022-08-21T03:30:41;100423.31;;;14.75
23992;BMP280;12205;50.600;4.608;2022-08-21T03:33:09;100426.75;;;14.72
23992;BMP280;12205;50.600;4.608;2022-08-21T03:35:36;100424.44;;;14.67
23992;BMP280;12205;50.600;4.608;2022-08-21T03:38:03;100419.81;;;14.64
23992;BMP280;12205;50.600;4.608;2022-08-21T03:40:30;100421.75;;;14.63
23992;BMP280;12205;50.600;4.608;2022-08-21T03:42:57;100427.13;;;14.59
23992;BMP280;12205;50.600;4.608;2022-08-21T03:45:25;100424.81;;;14.58
23992;BMP280;12205;50.600;4.608;2022-08-21T03:47:57;100393.22;;;14.40
23992;BMP280;12205;50.600;4.608;2022-08-21T03:50:29;100424.75;;;14.54
23992;BMP280;12205;50.600;4.608;2022-08-21T03:52:57;100415.56;;;14.52
23992;BMP280;12205;50.600;4.608;2022-08-21T03:55:25;100411.31;;;14.51
23992;BMP280;12205;50.600;4.608;2022-08-21T03:57:53;100409.41;;;14.51
23992;BMP280;12205;50.600;4.608;2022-08-21T04:00:21;100401.72;;;14.46
23992;BMP280;12205;50.600;4.608;2022-08-21T04:02:48;100408.59;;;14.44
23992;BMP280;12205;50.600;4.608;2022-08-21T04:05:18;100400.13;;;14.42
23992;BMP280;12205;50.600;4.608;2022-08-21T04:07:55;100398.59;;;14.40
23992;BMP280;12205;50.600;4.608;2022-08-21T04:10:22;100395.50;;;14.35
23992;BMP280;12205;50.600;4.608;2022-08-21T04:12:51;100400.88;;;14.35
23992;BMP280;12205;50.600;4.608;2022-08-21T04:15:19;100394.69;;;14.31
23992;BMP280;12205;50.600;4.608;2022-08-21T04:17:47;100396.25;;;14.32
23992;BMP280;12205;50.600;4.608;2022-08-21T04:20:15;100410.81;;;14.31
23992;BMP280;12205;50.600;4.608;2022-08-21T04:22:43;100401.63;;;14.32
23992;BMP280;12205;50.600;4.608;2022-08-21T04:25:12;100403.91;;;14.30
23992;BMP280;12205;50.600;4.608;2022-08-21T04:27:39;100404.66;;;14.27
23992;BMP280;12205;50.600;4.608;2022-08-21T04:30:09;100409.66;;;14.25
23992;BMP280;12205;50.600;4.608;2022-08-21T04:32:36;100409.25;;;14.23
23992;BMP280;12205;50.600;4.608;2022-08-21T04:35:08;100408.44;;;14.18
23992;BMP280;12205;50.600;4.608;2022-08-21T04:37:36;100410.00;;;14.16
23992;BMP280;12205;50.600;4.608;2022-08-21T04:40:07;100411.53;;;14.13
23992;BMP280;12205;50.600;4.608;2022-08-21T04:42:42;100418.75;;;14.06
23992;BMP280;12205;50.600;4.608;2022-08-21T04:45:17;100425.34;;;14.12
23992;BMP280;12205;50.600;4.608;2022-08-21T04:47:47;100429.16;;;14.11
23992;BMP280;12205;50.600;4.608;2022-08-21T04:50:15;100429.94;;;14.08
23992;BMP280;12205;50.600;4.608;2022-08-21T04:52:53;100416.84;;;14.06
23992;BMP280;12205;50.600;4.608;2022-08-21T04:55:23;100427.59;;;14.06
23992;BMP280;12205;50.600;4.608;2022-08-21T04:57:51;100423.75;;;14.07
23992;BMP280;12205;50.600;4.608;2022-08-21T05:00:20;100414.56;;;14.08
23992;BMP280;12205;50.600;4.608;2022-08-21T05:02:52;100418.81;;;14.09
23992;BMP280;12205;50.600;4.608;2022-08-21T05:05:22;100422.28;;;14.13
23992;BMP280;12205;50.600;4.608;2022-08-21T05:07:50;100422.28;;;14.13
23992;BMP280;12205;50.600;4.608;2022-08-21T05:10:18;100428.03;;;14.15
23992;BMP280;12205;50.600;4.608;2022-08-21T05:12:46;100431.50;;;14.16
23992;BMP280;12205;50.600;4.608;2022-08-21T05:15:14;100429.19;;;14.18
23992;BMP280;12205;50.600;4.608;2022-08-21T05:17:43;100434.63;;;14.22
23992;BMP280;12205;50.600;4.608;2022-08-21T05:20:13;100442.28;;;14.23
23992;BMP280;12205;50.600;4.608;2022-08-21T05:22:40;100433.84;;;14.25
23992;BMP280;12205;50.600;4.608;2022-08-21T05:25:10;100433.88;;;14.28
23992;BMP280;12205;50.600;4.608;2022-08-21T05:27:38;100425.81;;;14.32
23992;BMP280;12205;50.600;4.608;2022-08-21T05:30:10;100427.03;;;14.38
23992;BMP280;12205;50.600;4.608;2022-08-21T05:32:37;100422.44;;;14.42
23992;BMP280;12205;50.600;4.608;2022-08-21T05:35:06;100437.03;;;14.48
23992;BMP280;12205;50.600;4.608;2022-08-21T05:37:34;100423.22;;;14.50
23992;BMP280;12205;50.600;4.608;2022-08-21T05:40:04;100415.53;;;14.48
23992;BMP280;12205;50.600;4.608;2022-08-21T05:42:31;100420.97;;;14.59
23992;BMP280;12205;50.600;4.608;2022-08-21T05:44:58;100425.56;;;14.62
23992;BMP280;12205;50.600;4.608;2022-08-21T05:47:27;100427.53;;;14.69
23992;BMP280;12205;50.600;4.608;2022-08-21T05:49:54;100419.09;;;14.74
23992;BMP280;12205;50.600;4.608;2022-08-21T05:52:21;100425.66;;;14.80
23992;BMP280;12205;50.600;4.608;2022-08-21T05:54:49;100421.81;;;14.81
23992;BMP280;12205;50.600;4.608;2022-08-21T05:57:19;100411.44;;;14.90
23992;BMP280;12205;50.600;4.608;2022-08-21T05:59:46;100403.38;;;14.94
23992;BMP280;12205;50.600;4.608;2022-08-21T06:02:13;100401.84;;;15.04
23992;BMP280;12205;50.600;4.608;2022-08-21T06:04:42;100403.03;;;15.10
23992;BMP280;12205;50.600;4.608;2022-08-21T06:07:09;100388.03;;;15.16
23992;BMP280;12205;50.600;4.608;2022-08-21T06:09:36;100384.94;;;15.21
23992;BMP280;12205;50.600;4.608;2022-08-21T06:12:06;100390.34;;;15.28
23992;BMP280;12205;50.600;4.608;2022-08-21T06:14:34;100394.59;;;15.37
23992;BMP280;12205;50.600;4.608;2022-08-21T06:17:06;100396.16;;;15.41
23992;BMP280;12205;50.600;4.608;2022-08-21T06:19:35;100401.13;;;15.50
23992;BMP280;12205;50.600;4.608;2022-08-21T06:22:04;100386.91;;;15.53
23992;BMP280;12205;50.600;4.608;2022-08-21T06:24:31;100383.44;;;15.52
23992;BMP280;12205;50.600;4.608;2022-08-21T06:27:05;100399.19;;;15.72
23992;BMP280;12205;50.600;4.608;2022-08-21T06:29:33;100403.38;;;15.84
23992;BMP280;12205;50.600;4.608;2022-08-21T06:32:02;100396.44;;;15.93
23992;BMP280;12205;50.600;4.608;2022-08-21T06:34:30;100395.69;;;15.97
23992;BMP280;12205;50.600;4.608;2022-08-21T06:36:57;100397.94;;;16.05
23992;BMP280;12205;50.600;4.608;2022-08-21T06:39:25;100402.56;;;16.16
23992;BMP280;12205;50.600;4.608;2022-08-21T06:41:52;100400.22;;;16.25
23992;BMP280;12205;50.600;4.608;2022-08-21T06:44:27;100404.81;;;16.35
23992;BMP280;12205;50.600;4.608;2022-08-21T06:46:55;100400.53;;;16.41
23992;BMP280;12205;50.600;4.608;2022-08-21T06:49:23;100402.41;;;16.51
23992;BMP280;12205;50.600;4.608;2022-08-21T06:51:50;100406.97;;;16.62
23992;BMP280;12205;50.600;4.608;2022-08-21T06:54:17;100400.03;;;16.68
23992;BMP280;12205;50.600;4.608;2022-08-21T06:56:45;100416.13;;;16.79
23992;BMP280;12205;50.600;4.608;2022-08-21T06:59:12;100409.91;;;16.93
23992;BMP280;12205;50.600;4.608;2022-08-21T07:01:39;100406.34;;;17.03
23992;BMP280;12205;50.600;4.608;2022-08-21T07:04:07;100412.81;;;17.13
23992;BMP280;12205;50.600;4.608;2022-08-21T07:06:34;100415.44;;;17.23
23992;BMP280;12205;50.600;4.608;2022-08-21T07:09:02;100418.09;;;17.31
23992;BMP280;12205;50.600;4.608;2022-08-21T07:11:30;100411.84;;;17.41
23992;BMP280;12205;50.600;4.608;2022-08-21T07:13:58;100417.91;;;17.52
23992;BMP280;12205;50.600;4.608;2022-08-21T07:16:25;100420.94;;;17.61
23992;BMP280;12205;50.600;4.608;2022-08-21T07:18:52;100426.19;;;17.72
23992;BMP280;12205;50.600;4.608;2022-08-21T07:21:20;100436.19;;;17.79
23992;BMP280;12205;50.600;4.608;2022-08-21T07:23:50;100434.53;;;17.88
23992;BMP280;12205;50.600;4.608;2022-08-21T07:26:21;100432.88;;;17.98
23992;BMP280;12205;50.600;4.608;2022-08-21T07:28:49;100437.78;;;18.11
23992;BMP280;12205;50.600;4.608;2022-08-21T07:31:22;100439.97;;;18.23
23992;BMP280;12205;50.600;4.608;2022-08-21T07:33:49;100435.53;;;18.36
23992;BMP280;12205;50.600;4.608;2022-08-21T07:36:17;100438.63;;;18.38
23992;BMP280;12205;50.600;4.608;2022-08-21T07:38:44;100449.28;;;18.53
23992;BMP280;12205;50.600;4.608;2022-08-21T07:41:16;100440.59;;;18.65
23992;BMP280;12205;50.600;4.608;2022-08-21T07:43:44;100445.56;;;18.70
23992;BMP280;12205;50.600;4.608;2022-08-21T07:46:12;100452.66;;;18.88
23992;BMP280;12205;50.600;4.608;2022-08-21T07:48:41;100451.00;;;18.94
23992;BMP280;12205;50.600;4.608;2022-08-21T07:51:12;100457.41;;;19.07
23992;BMP280;12205;50.600;4.608;2022-08-21T07:53:40;100462.41;;;19.09
23992;BMP280;12205;50.600;4.608;2022-08-21T07:56:09;100466.22;;;19.11
23992;BMP280;12205;50.600;4.608;2022-08-21T07:58:38;100465.28;;;19.21
23992;BMP280;12205;50.600;4.608;2022-08-21T08:01:05;100458.13;;;19.35
23992;BMP280;12205;50.600;4.608;2022-08-21T08:03:32;100468.66;;;19.53
23992;BMP280;12205;50.600;4.608;2022-08-21T08:06:01;100467.63;;;19.66
23992;BMP280;12205;50.600;4.608;2022-08-21T08:08:31;100451.88;;;19.81
23992;BMP280;12205;50.600;4.608;2022-08-21T08:10:59;100456.97;;;19.99
23992;BMP280;12205;50.600;4.608;2022-08-21T08:13:27;100449.50;;;20.03
23992;BMP280;12205;50.600;4.608;2022-08-21T08:15:54;100455.53;;;20.11
23992;BMP280;12205;50.600;4.608;2022-08-21T08:18:21;100444.97;;;20.17
23992;BMP280;12205;50.600;4.608;2022-08-21T08:20:48;100447.41;;;20.31
23992;BMP280;12205;50.600;4.608;2022-08-21T08:23:17;100449.78;;;20.45
23992;BMP280;12205;50.600;4.608;2022-08-21T08:25:44;100450.31;;;20.57
23992;BMP280;12205;50.600;4.608;2022-08-21T08:28:11;100444.72;;;20.64
23992;BMP280;12205;50.600;4.608;2022-08-21T08:30:38;100447.78;;;20.66
23992;BMP280;12205;50.600;4.608;2022-08-21T08:33:05;100450.78;;;20.88
23992;BMP280;12205;50.600;4.608;2022-08-21T08:35:32;100437.78;;;20.96
23992;BMP280;12205;50.600;4.608;2022-08-21T08:37:59;100444.38;;;21.11
23992;BMP280;12205;50.600;4.608;2022-08-21T08:40:38;100427.03;;;21.21
23992;BMP280;12205;50.600;4.608;2022-08-21T08:43:06;100434.84;;;21.36
23992;BMP280;12205;50.600;4.608;2022-08-21T08:45:39;100436.69;;;21.39
23992;BMP280;12205;50.600;4.608;2022-08-21T08:48:12;100429.38;;;21.36
23992;BMP280;12205;50.600;4.608;2022-08-21T08:50:46;100434.44;;;21.50
23992;BMP280;12205;50.600;4.608;2022-08-21T08:53:21;100427.63;;;21.58
23992;BMP280;12205;50.600;4.608;2022-08-21T08:55:52;100439.84;;;21.66
23992;BMP280;12205;50.600;4.608;2022-08-21T08:58:24;100441.28;;;21.71
23992;BMP280;12205;50.600;4.608;2022-08-21T09:00:54;100436.56;;;21.72
23992;BMP280;12205;50.600;4.608;2022-08-21T09:03:23;100446.72;;;21.71
23992;BMP280;12205;50.600;4.608;2022-08-21T09:06:02;100440.03;;;21.59
23992;BMP280;12205;50.600;4.608;2022-08-21T09:08:49;100443.94;;;21.58
23992;BMP280;12205;50.600;4.608;2022-08-21T09:11:29;100430.53;;;21.51
23992;BMP280;12205;50.600;4.608;2022-08-21T09:14:07;100449.16;;;21.53
23992;BMP280;12205;50.600;4.608;2022-08-21T09:16:47;100440.44;;;21.45
23992;BMP280;12205;50.600;4.608;2022-08-21T09:19:35;100434.00;;;21.52
23992;BMP280;12205;50.600;4.608;2022-08-21T09:22:16;100434.59;;;21.59
23992;BMP280;12205;50.600;4.608;2022-08-21T09:24:56;100433.72;;;21.62
23992;BMP280;12205;50.600;4.608;2022-08-21T09:27:31;100436.41;;;21.50
23992;BMP280;12205;50.600;4.608;2022-08-21T09:29:59;100436.16;;;21.44
23992;BMP280;12205;50.600;4.608;2022-08-21T09:32:31;100422.66;;;21.40
23992;BMP280;12205;50.600;4.608;2022-08-21T09:35:10;100432.41;;;21.54
23992;BMP280;12205;50.600;4.608;2022-08-21T09:37:50;100421.47;;;21.71
23992;BMP280;12205;50.600;4.608;2022-08-21T09:40:31;100419.66;;;21.93
23992;BMP280;12205;50.600;4.608;2022-08-21T09:43:03;100423.59;;;22.18
23992;BMP280;12205;50.600;4.608;2022-08-21T09:45:32;100415.53;;;22.27
23992;BMP280;12205;50.600;4.608;2022-08-21T09:48:12;100424.78;;;22.42
23992;BMP280;12205;50.600;4.608;2022-08-21T09:50:41;100415.84;;;22.55
23992;BMP280;12205;50.600;4.608;2022-08-21T09:53:19;100417.16;;;22.50
23992;BMP280;12205;50.600;4.608;2022-08-21T09:55:52;100425.94;;;22.67
23992;BMP280;12205;50.600;4.608;2022-08-21T09:58:43;100418.09;;;22.82
23992;BMP280;12205;50.600;4.608;2022-08-21T10:01:16;100416.75;;;22.86
23992;BMP280;12205;50.600;4.608;2022-08-21T10:03:45;100425.03;;;22.96
23992;BMP280;12205;50.600;4.608;2022-08-21T10:06:25;100411.72;;;22.98
23992;BMP280;12205;50.600;4.608;2022-08-21T10:09:06;100417.56;;;23.09
23992;BMP280;12205;50.600;4.608;2022-08-21T10:11:34;100402.56;;;23.14
23992;BMP280;12205;50.600;4.608;2022-08-21T10:14:15;100402.41;;;23.08
23992;BMP280;12205;50.600;4.608;2022-08-21T10:16:59;100407.38;;;23.22
23992;BMP280;12205;50.600;4.608;2022-08-21T10:19:39;100411.38;;;23.30
23992;BMP280;12205;50.600;4.608;2022-08-21T10:22:22;100402.84;;;23.28
23992;BMP280;12205;50.600;4.608;2022-08-21T10:25:14;100397.41;;;23.50
23992;BMP280;12205;50.600;4.608;2022-08-21T10:27:55;100399.91;;;23.67
23992;BMP280;12205;50.600;4.608;2022-08-21T10:30:43;100401.66;;;23.83
23992;BMP280;12205;50.600;4.608;2022-08-21T10:33:28;100398.66;;;23.90
23992;BMP280;12205;50.600;4.608;2022-08-21T10:36:09;100403.06;;;23.87
23992;BMP280;12205;50.600;4.608;2022-08-21T10:38:58;100400.88;;;23.82
23992;BMP280;12205;50.600;4.608;2022-08-21T10:42:03;100390.19;;;23.97
23992;BMP280;12205;50.600;4.608;2022-08-21T10:44:44;100387.84;;;24.18
23992;BMP280;12205;50.600;4.608;2022-08-21T10:47:26;100389.38;;;24.37
23992;BMP280;12205;50.600;4.608;2022-08-21T10:50:17;100374.84;;;24.49
23992;BMP280;12205;50.600;4.608;2022-08-21T10:53:19;100376.97;;;24.54
23992;BMP280;12205;50.600;4.608;2022-08-21T10:56:00;100373.91;;;24.52
23992;BMP280;12205;50.600;4.608;2022-08-21T10:58:33;100372.09;;;24.59
23992;BMP280;12205;50.600;4.608;2022-08-21T11:01:12;100386.84;;;24.80
23992;BMP280;12205;50.600;4.608;2022-08-21T11:03:48;100378.94;;;24.63
23992;BMP280;12205;50.600;4.608;2022-08-21T11:06:24;100378.94;;;24.45
23992;BMP280;12205;50.600;4.608;2022-08-21T11:08:57;100377.25;;;24.47
23992;BMP280;12205;50.600;4.608;2022-08-21T11:11:31;100382.41;;;24.54
23992;BMP280;12205;50.600;4.608;2022-08-21T11:14:10;100378.16;;;24.44
23992;BMP280;12205;50.600;4.608;2022-08-21T11:16:45;100381.53;;;24.39
23992;BMP280;12205;50.600;4.608;2022-08-21T11:19:22;100386.38;;;24.63
23992;BMP280;12205;50.600;4.608;2022-08-21T11:22:00;100379.72;;;24.82
23992;BMP280;12205;50.600;4.608;2022-08-21T11:24:38;100376.97;;;24.91
23992;BMP280;12205;50.600;4.608;2022-08-21T11:27:21;100391.41;;;25.01
23992;BMP280;12205;50.600;4.608;2022-08-21T11:29:56;100386.69;;;25.20
23992;BMP280;12205;50.600;4.608;2022-08-21T11:32:55;100382.34;;;25.37
23992;BMP280;12205;50.600;4.608;2022-08-21T11:35:36;100378.28;;;25.75
23992;BMP280;12205;50.600;4.608;2022-08-21T11:38:22;100377.72;;;25.95
23992;BMP280;12205;50.600;4.608;2022-08-21T11:41:06;100377.78;;;26.10
23992;BMP280;12205;50.600;4.608;2022-08-21T11:43:40;100381.94;;;26.30
23992;BMP280;12205;50.600;4.608;2022-08-21T11:46:28;100378.69;;;26.16
23992;BMP280;12205;50.600;4.608;2022-08-21T11:49:25;100379.88;;;26.15
23992;BMP280;12205;50.600;4.608;2022-08-21T11:52:08;100381.75;;;26.09
23992;BMP280;12205;50.600;4.608;2022-08-21T11:55:19;100376.34;;;25.91
23992;BMP280;12205;50.600;4.608;2022-08-21T11:57:55;100375.41;;;26.27
23992;BMP280;12205;50.600;4.608;2022-08-21T12:00:30;100380.84;;;26.51
23992;BMP280;12205;50.600;4.608;2022-08-21T12:03:11;100379.09;;;26.78
23992;BMP280;12205;50.600;4.608;2022-08-21T12:05:45;100376.28;;;27.17
23992;BMP280;12205;50.600;4.608;2022-08-21T12:08:30;100370.09;;;27.72
23992;BMP280;12205;50.600;4.608;2022-08-21T12:11:05;100368.91;;;28.14
23992;BMP280;12205;50.600;4.608;2022-08-21T12:13:36;100366.34;;;28.10
23992;BMP280;12205;50.600;4.608;2022-08-21T12:16:10;100364.50;;;28.22
23992;BMP280;12205;50.600;4.608;2022-08-21T12:18:37;100370.72;;;28.69
23992;BMP280;12205;50.600;4.608;2022-08-21T12:21:20;100357.59;;;29.16
23992;BMP280;12205;50.600;4.608;2022-08-21T12:24:03;100351.31;;;29.53
23992;BMP280;12205;50.600;4.608;2022-08-21T12:26:35;100353.44;;;29.81
23992;BMP280;12205;50.600;4.608;2022-08-21T12:29:05;100360.06;;;30.00
23992;BMP280;12205;50.600;4.608;2022-08-21T12:31:32;100358.06;;;30.18
23992;BMP280;12205;50.600;4.608;2022-08-21T12:34:04;100365.09;;;30.30
23992;BMP280;12205;50.600;4.608;2022-08-21T12:36:43;100372.47;;;29.79
23992;BMP280;12205;50.600;4.608;2022-08-21T12:39:19;100365.28;;;29.07
23992;BMP280;12205;50.600;4.608;2022-08-21T12:41:53;100378.34;;;28.54
23992;BMP280;12205;50.600;4.608;2022-08-21T12:44:32;100376.84;;;27.91
23992;BMP280;12205;50.600;4.608;2022-08-21T12:47:05;100375.81;;;27.68
23992;BMP280;12205;50.600;4.608;2022-08-21T12:49:37;100377.38;;;27.55
23992;BMP280;12205;50.600;4.608;2022-08-21T12:52:19;100377.13;;;27.73
23992;BMP280;12205;50.600;4.608;2022-08-21T12:54:48;100375.75;;;27.83
23992;BMP280;12205;50.600;4.608;2022-08-21T12:57:22;100389.25;;;28.02
23992;BMP280;12205;50.600;4.608;2022-08-21T12:59:55;100378.13;;;28.11
23992;BMP280;12205;50.600;4.608;2022-08-21T13:02:28;100383.75;;;28.22
23992;BMP280;12205;50.600;4.608;2022-08-21T13:04:57;100390.81;;;28.49
23992;BMP280;12205;50.600;4.608;2022-08-21T13:07:29;100381.56;;;28.78
23992;BMP280;12205;50.600;4.608;2022-08-21T13:10:06;100379.41;;;28.88
23992;BMP280;12205;50.600;4.608;2022-08-21T13:12:36;100381.28;;;29.08
23992;BMP280;12205;50.600;4.608;2022-08-21T13:15:06;100386.84;;;28.82
23992;BMP280;12205;50.600;4.608;2022-08-21T13:17:39;100384.00;;;29.03
23992;BMP280;12205;50.600;4.608;2022-08-21T13:20:19;100373.56;;;29.12
23992;BMP280;12205;50.600;4.608;2022-08-21T13:22:49;100375.72;;;29.29
23992;BMP280;12205;50.600;4.608;2022-08-21T13:25:21;100375.06;;;29.45
23992;BMP280;12205;50.600;4.608;2022-08-21T13:28:01;100381.13;;;29.17
23992;BMP280;12205;50.600;4.608;2022-08-21T13:30:31;100380.69;;;29.25
23992;BMP280;12205;50.600;4.608;2022-08-21T13:33:04;100380.13;;;29.20
23992;BMP280;12205;50.600;4.608;2022-08-21T13:35:46;100374.94;;;28.91
23992;BMP280;12205;50.600;4.608;2022-08-21T13:38:15;100382.59;;;29.07
23992;BMP280;12205;50.600;4.608;2022-08-21T13:40:49;100376.84;;;29.11
23992;BMP280;12205;50.600;4.608;2022-08-21T13:43:31;100382.06;;;28.77
23992;BMP280;12205;50.600;4.608;2022-08-21T13:46:01;100387.97;;;28.70
23992;BMP280;12205;50.600;4.608;2022-08-21T13:51:36;100383.97;;;28.97
23992;BMP280;12205;50.600;4.608;2022-08-21T13:54:20;100379.13;;;28.86
23992;BMP280;12205;50.600;4.608;2022-08-21T13:56:58;100373.09;;;28.56
23992;BMP280;12205;50.600;4.608;2022-08-21T13:59:32;100379.88;;;28.34
23992;BMP280;12205;50.600;4.608;2022-08-21T14:02:16;100375.06;;;28.50
23992;BMP280;12205;50.600;4.608;2022-08-21T14:05:19;100384.13;;;28.35
23992;BMP280;12205;50.600;4.608;2022-08-21T14:08:07;100368.81;;;28.49
23992;BMP280;12205;50.600;4.608;2022-08-21T14:10:42;100374.41;;;28.87
23992;BMP280;12205;50.600;4.608;2022-08-21T14:13:35;100368.63;;;29.59
23992;BMP280;12205;50.600;4.608;2022-08-21T14:19:11;100357.63;;;30.70
23992;BMP280;12205;50.600;4.608;2022-08-21T14:21:45;100368.69;;;30.81
23992;BMP280;12205;50.600;4.608;2022-08-21T14:24:30;100363.19;;;30.81
23992;BMP280;12205;50.600;4.608;2022-08-21T14:27:03;100366.91;;;31.06
23992;BMP280;12205;50.600;4.608;2022-08-21T14:29:41;100359.53;;;31.42
23992;BMP280;12205;50.600;4.608;2022-08-21T14:32:15;100364.50;;;31.61